createdAt,value
2023-02-27T00:00:24.949Z,17.02
2023-02-27T00:02:52.006Z,17.77
2023-02-27T00:05:19.215Z,16.42
2023-02-27T00:07:46.051Z,15.77
2023-02-27T00:10:13.869Z,16.13
2023-02-27T00:12:40.391Z,13.73
2023-02-27T00:15:11.050Z,12.13
2023-02-27T00:17:38.043Z,12.35
2023-02-27T00:20:11.106Z,13.10
2023-02-27T00:22:38.005Z,9.60
2023-02-27T00:25:05.007Z,9.27
2023-02-27T00:27:32.652Z,10.57
2023-02-27T00:29:59.559Z,8.60
2023-02-27T00:32:26.168Z,10.05
2023-02-27T00:34:52.584Z,9.70
2023-02-27T00:37:19.035Z,8.52
2023-02-27T00:39:45.535Z,7.80
2023-02-27T00:42:12.066Z,9.93
2023-02-27T00:44:38.687Z,7.93
2023-02-27T00:47:06.539Z,9.75
2023-02-27T00:49:32.934Z,9.00
2023-02-27T00:51:59.390Z,7.18
2023-02-27T00:54:25.835Z,8.80
2023-02-27T00:56:52.283Z,9.50
2023-02-27T00:59:18.718Z,8.43
2023-02-27T01:01:45.154Z,8.18
2023-02-27T01:04:11.923Z,8.88
2023-02-27T01:06:38.399Z,7.00
2023-02-27T01:09:04.970Z,8.20
2023-02-27T01:11:31.425Z,8.35
2023-02-27T01:13:59.910Z,7.90
2023-02-27T01:16:26.509Z,8.13
2023-02-27T01:18:53.351Z,9.02
2023-02-27T01:21:19.786Z,8.02
2023-02-27T01:23:46.525Z,8.35
2023-02-27T01:26:13.008Z,8.52
2023-02-27T01:28:39.520Z,7.65
2023-02-27T01:31:06.028Z,7.65
2023-02-27T01:33:32.522Z,6.97
2023-02-27T01:36:00.366Z,7.65
2023-02-27T01:38:26.958Z,9.63
2023-02-27T01:40:53.448Z,8.35
2023-02-27T01:43:21.004Z,7.70
2023-02-27T01:45:49.008Z,7.50
2023-02-27T01:48:16.979Z,7.32
2023-02-27T01:50:46.544Z,8.13
2023-02-27T01:53:13.595Z,7.53
2023-02-27T01:55:40.206Z,6.32
2023-02-27T01:58:07.962Z,7.15
2023-02-27T02:00:35.758Z,7.50
2023-02-27T02:03:08.929Z,8.02
2023-02-27T02:05:35.677Z,6.38
2023-02-27T02:08:02.450Z,6.35
2023-02-27T02:10:29.415Z,8.07
2023-02-27T02:12:56.276Z,8.45
2023-02-27T02:15:25.740Z,6.07
2023-02-27T02:18:05.127Z,8.55
2023-02-27T02:20:50.427Z,6.40
2023-02-27T02:23:35.757Z,8.77
2023-02-27T02:26:20.153Z,6.18
2023-02-27T02:28:47.313Z,5.70
2023-02-27T02:31:20.002Z,7.30
2023-02-27T02:34:05.404Z,8.23
2023-02-27T02:36:44.023Z,7.72
2023-02-27T02:39:23.562Z,6.70
2023-02-27T02:41:58.335Z,7.70
2023-02-27T02:44:30.924Z,8.18
2023-02-27T02:47:03.537Z,7.55
2023-02-27T02:49:50.635Z,8.13
2023-02-27T02:52:17.183Z,6.65
2023-02-27T02:54:47.888Z,9.18
2023-02-27T02:57:17.442Z,7.38
2023-02-27T02:59:55.701Z,7.93
2023-02-27T03:02:25.650Z,8.13
2023-02-27T03:04:58.566Z,7.43
2023-02-27T03:07:34.271Z,9.32
2023-02-27T03:10:08.396Z,9.40
2023-02-27T03:12:36.106Z,8.20
2023-02-27T03:15:13.447Z,8.77
2023-02-27T03:18:06.647Z,8.05
2023-02-27T03:23:04.924Z,8.15
2023-02-27T03:25:33.054Z,7.45
2023-02-27T03:28:01.559Z,9.13
2023-02-27T03:30:28.107Z,10.30
2023-02-27T03:32:56.919Z,7.93
2023-02-27T03:35:27.704Z,8.65
2023-02-27T03:38:07.535Z,9.93
2023-02-27T03:40:36.751Z,9.77
2023-02-27T03:43:08.111Z,10.55
2023-02-27T03:45:45.401Z,7.90
2023-02-27T03:48:13.515Z,8.48
2023-02-27T03:50:39.997Z,8.15
2023-02-27T03:53:09.099Z,9.05
2023-02-27T03:55:37.135Z,8.60
2023-02-27T03:58:03.954Z,8.27
2023-02-27T04:00:30.500Z,9.85
2023-02-27T04:02:58.348Z,9.73
2023-02-27T04:05:27.200Z,8.20
2023-02-27T04:08:16.361Z,7.57
2023-02-27T04:10:45.235Z,7.72
2023-02-27T04:13:14.797Z,7.15
2023-02-27T04:16:00.749Z,14.10
2023-02-27T04:18:46.168Z,9.00
2023-02-27T04:21:27.814Z,10.68
2023-02-27T04:24:03.603Z,9.50
2023-02-27T04:26:30.061Z,10.55
2023-02-27T04:29:11.428Z,9.63
2023-02-27T04:31:42.650Z,10.32
2023-02-27T04:34:09.128Z,9.93
2023-02-27T04:36:44.228Z,10.05
2023-02-27T04:39:23.473Z,21.98
2023-02-27T04:42:01.474Z,10.35
2023-02-27T04:44:29.916Z,9.45
2023-02-27T04:46:57.016Z,10.07
2023-02-27T04:49:28.727Z,10.20
2023-02-27T04:52:04.084Z,8.23
2023-02-27T04:54:50.270Z,8.82
2023-02-27T04:57:22.193Z,7.00
2023-02-27T04:59:51.385Z,8.40
2023-02-27T05:02:24.653Z,8.55
2023-02-27T05:07:19.659Z,7.00
2023-02-27T05:09:55.301Z,6.95
2023-02-27T05:12:24.494Z,6.85
2023-02-27T05:15:00.053Z,7.53
2023-02-27T05:17:29.802Z,6.90
2023-02-27T05:19:56.299Z,8.38
2023-02-27T05:22:34.869Z,8.60
2023-02-27T05:25:15.588Z,8.73
2023-02-27T05:27:44.917Z,8.57
2023-02-27T05:30:30.130Z,8.18
2023-02-27T05:33:03.344Z,6.68
2023-02-27T05:35:32.643Z,4.65
2023-02-27T05:38:07.687Z,4.43
2023-02-27T05:40:36.613Z,2.65
2023-02-27T05:43:06.036Z,3.30
2023-02-27T05:45:34.716Z,2.55
2023-02-27T05:48:13.875Z,3.30
2023-02-27T05:50:40.998Z,2.83
2023-02-27T05:53:15.225Z,4.15
2023-02-27T05:55:43.983Z,5.45
2023-02-27T05:58:10.384Z,4.47
2023-02-27T06:00:39.506Z,3.60
2023-02-27T06:03:06.176Z,4.63
2023-02-27T06:05:33.145Z,3.50
2023-02-27T06:07:59.559Z,3.20
2023-02-27T06:10:26.120Z,5.93
2023-02-27T06:12:52.546Z,2.88
2023-02-27T06:15:19.690Z,2.83
2023-02-27T06:17:46.117Z,4.45
2023-02-27T06:20:12.769Z,4.68
2023-02-27T06:22:39.318Z,3.08
2023-02-27T06:25:06.031Z,4.00
2023-02-27T06:27:32.433Z,3.38
2023-02-27T06:29:58.902Z,4.03
2023-02-27T06:32:25.885Z,7.00
2023-02-27T06:34:53.061Z,4.85
2023-02-27T06:37:19.562Z,4.85
2023-02-27T06:39:46.062Z,9.63
2023-02-27T06:42:12.704Z,3.72
2023-02-27T06:44:39.237Z,3.15
2023-02-27T06:47:05.781Z,3.67
2023-02-27T06:49:32.301Z,2.70
2023-02-27T06:51:58.836Z,3.83
2023-02-27T06:54:25.321Z,5.28
2023-02-27T06:56:52.004Z,4.10
2023-02-27T06:59:18.461Z,6.93
2023-02-27T07:01:44.984Z,4.03
2023-02-27T07:04:15.191Z,7.90
2023-02-27T07:07:32.753Z,8.52
2023-02-27T07:09:28.331Z,3.70
2023-02-27T07:11:54.832Z,11.90
2023-02-27T07:14:21.399Z,8.50
2023-02-27T07:16:50.944Z,6.38
2023-02-27T07:19:18.543Z,6.43
2023-02-27T07:21:45.264Z,4.40
2023-02-27T07:24:11.936Z,5.28
2023-02-27T07:26:38.416Z,4.10
2023-02-27T07:29:05.389Z,2.75
2023-02-27T07:31:31.979Z,3.25
2023-02-27T07:33:58.427Z,4.15
2023-02-27T07:36:25.511Z,4.65
2023-02-27T07:38:51.985Z,4.97
2023-02-27T07:41:29.943Z,7.85
2023-02-27T07:43:59.421Z,5.60
2023-02-27T07:46:27.602Z,8.68
2023-02-27T07:48:54.800Z,20.10
2023-02-27T07:51:21.750Z,15.30
2023-02-27T07:53:48.229Z,16.02
2023-02-27T07:56:14.679Z,8.63
2023-02-27T07:58:41.170Z,4.85
2023-02-27T08:01:07.683Z,3.53
2023-02-27T08:03:34.107Z,3.55
2023-02-27T08:06:02.348Z,5.47
2023-02-27T08:08:29.757Z,4.38
2023-02-27T08:10:56.347Z,3.25
2023-02-27T08:13:42.226Z,4.45
2023-02-27T08:16:09.526Z,5.75
2023-02-27T08:18:36.020Z,4.20
2023-02-27T08:21:06.015Z,3.00
2023-02-27T08:23:34.530Z,5.47
2023-02-27T08:26:01.815Z,5.35
2023-02-27T08:28:28.630Z,4.53
2023-02-27T08:30:55.154Z,6.60
2023-02-27T08:33:22.314Z,4.63
2023-02-27T08:35:48.887Z,6.80
2023-02-27T08:38:15.319Z,5.85
2023-02-27T08:40:41.826Z,6.07
2023-02-27T08:43:08.215Z,5.00
2023-02-27T08:45:34.634Z,4.95
2023-02-27T08:48:01.150Z,5.65
2023-02-27T08:50:27.560Z,6.95
2023-02-27T08:52:54.031Z,8.13
2023-02-27T08:55:21.481Z,3.55
2023-02-27T08:57:47.896Z,3.70
2023-02-27T09:00:14.778Z,3.78
2023-02-27T09:02:41.433Z,6.75
2023-02-27T09:05:08.165Z,3.42
2023-02-27T09:07:34.674Z,3.17
2023-02-27T09:10:01.102Z,3.83
2023-02-27T09:12:27.545Z,7.38
2023-02-27T09:14:53.967Z,3.55
2023-02-27T09:17:20.403Z,6.63
2023-02-27T09:19:46.814Z,5.93
2023-02-27T09:22:13.238Z,7.78
2023-02-27T09:24:39.648Z,4.97
2023-02-27T09:27:06.045Z,5.25
2023-02-27T09:29:32.573Z,4.07
2023-02-27T09:31:59.263Z,5.53
2023-02-27T09:34:25.917Z,6.68
2023-02-27T09:36:52.332Z,5.60
2023-02-27T09:39:18.731Z,8.65
2023-02-27T09:41:59.669Z,7.95
2023-02-27T09:44:46.248Z,5.78
2023-02-27T09:47:15.819Z,9.10
2023-02-27T09:49:49.519Z,7.25
2023-02-27T09:52:16.103Z,6.05
2023-02-27T09:54:44.602Z,3.72
2023-02-27T09:57:15.176Z,4.68
2023-02-27T09:59:44.477Z,5.40
2023-02-27T10:02:10.928Z,3.25
2023-02-27T10:04:49.352Z,3.53
2023-02-27T10:07:34.278Z,3.33
2023-02-27T10:10:06.735Z,6.95
2023-02-27T10:12:50.119Z,5.85
2023-02-27T10:15:22.409Z,6.03
2023-02-27T10:17:51.461Z,6.18
2023-02-27T10:20:24.008Z,7.18
2023-02-27T10:22:51.354Z,7.73
2023-02-27T10:25:30.721Z,3.17
2023-02-27T10:28:00.706Z,5.10
2023-02-27T10:30:32.897Z,4.85
2023-02-27T10:33:13.582Z,3.47
2023-02-27T10:35:43.009Z,3.60
2023-02-27T10:38:18.343Z,3.58
2023-02-27T10:40:45.475Z,4.93
2023-02-27T10:43:14.341Z,2.97
2023-02-27T10:45:42.271Z,4.00
2023-02-27T10:48:08.725Z,4.72
2023-02-27T10:50:36.877Z,3.60
2023-02-27T10:53:04.995Z,3.63
2023-02-27T10:55:32.917Z,5.20
2023-02-27T10:58:01.084Z,3.65
2023-02-27T11:00:35.178Z,3.72
2023-02-27T11:03:01.781Z,3.78
2023-02-27T11:05:29.685Z,5.30
2023-02-27T11:07:57.176Z,4.45
2023-02-27T11:10:25.299Z,3.72
2023-02-27T11:12:57.744Z,3.75
2023-02-27T11:15:25.916Z,5.47
2023-02-27T11:17:53.840Z,3.15
2023-02-27T11:20:40.635Z,5.72
2023-02-27T11:23:13.170Z,3.25
2023-02-27T11:25:39.826Z,3.40
2023-02-27T11:28:23.553Z,4.60
2023-02-27T11:33:20.699Z,4.65
2023-02-27T11:35:58.236Z,5.28
2023-02-27T11:38:26.524Z,11.82
2023-02-27T11:41:04.140Z,5.43
2023-02-27T11:43:34.814Z,7.10
2023-02-27T11:46:18.830Z,4.68
2023-02-27T11:48:57.463Z,4.13
2023-02-27T11:51:26.655Z,4.05
2023-02-27T11:53:53.155Z,5.03
2023-02-27T11:56:42.737Z,7.93
2023-02-27T11:59:15.643Z,6.18
2023-02-27T12:01:45.124Z,6.00
2023-02-27T12:04:23.481Z,4.57
2023-02-27T12:06:56.214Z,6.75
2023-02-27T12:09:35.651Z,4.22
2023-02-27T12:12:06.105Z,4.68
2023-02-27T12:14:43.310Z,5.28
2023-02-27T12:17:14.438Z,4.03
2023-02-27T12:19:48.243Z,3.50
2023-02-27T12:22:22.821Z,4.75
2023-02-27T12:24:53.475Z,6.43
2023-02-27T12:27:19.947Z,5.45
2023-02-27T12:30:04.808Z,6.35
2023-02-27T12:32:38.042Z,6.22
2023-02-27T12:35:19.633Z,4.05
2023-02-27T12:37:46.203Z,4.90
2023-02-27T12:40:17.370Z,5.20
2023-02-27T12:42:43.920Z,5.07
2023-02-27T12:45:29.130Z,3.47
2023-02-27T12:47:55.671Z,5.32
2023-02-27T12:50:23.089Z,5.18
2023-02-27T12:53:04.409Z,3.75
2023-02-27T12:55:31.752Z,3.35
2023-02-27T12:58:07.371Z,4.10
2023-02-27T13:00:46.427Z,4.85
2023-02-27T13:03:16.316Z,4.70
2023-02-27T13:05:45.733Z,5.55
2023-02-27T13:08:41.241Z,5.38
2023-02-27T13:11:26.603Z,7.07
2023-02-27T13:13:56.712Z,3.40
2023-02-27T13:16:29.368Z,6.03
2023-02-27T13:18:55.894Z,4.32
2023-02-27T13:21:26.282Z,8.25
2023-02-27T13:24:01.417Z,3.88
2023-02-27T13:26:34.349Z,4.57
2023-02-27T13:29:01.299Z,11.50
2023-02-27T13:31:31.177Z,10.15
2023-02-27T13:34:04.143Z,5.07
2023-02-27T13:36:44.934Z,6.68
2023-02-27T13:39:29.967Z,4.15
2023-02-27T13:41:56.641Z,7.10
2023-02-27T13:44:23.050Z,6.28
2023-02-27T13:46:49.630Z,10.50
2023-02-27T13:49:28.858Z,10.35
2023-02-27T13:51:58.674Z,7.32
2023-02-27T13:54:26.726Z,5.00
2023-02-27T13:56:59.092Z,4.90
2023-02-27T13:59:39.651Z,6.70
2023-02-27T14:02:25.022Z,3.38
2023-02-27T14:04:52.760Z,7.55
2023-02-27T14:07:28.098Z,15.82
2023-02-27T14:10:11.121Z,21.33
2023-02-27T14:12:45.473Z,12.30
2023-02-27T14:15:18.526Z,6.43
2023-02-27T14:17:46.395Z,5.78
2023-02-27T14:20:27.817Z,4.82
2023-02-27T14:23:12.877Z,5.15
2023-02-27T14:25:40.874Z,5.75
2023-02-27T14:28:16.643Z,5.05
2023-02-27T14:30:45.625Z,6.22
2023-02-27T14:33:15.855Z,13.57
2023-02-27T14:35:44.911Z,7.95
2023-02-27T14:38:11.984Z,8.10
2023-02-27T14:40:51.690Z,8.10
2023-02-27T14:43:25.930Z,5.13
2023-02-27T14:45:53.214Z,7.65
2023-02-27T14:48:25.184Z,7.32
2023-02-27T14:50:53.743Z,7.32
2023-02-27T14:53:27.188Z,15.95
2023-02-27T14:55:55.673Z,7.63
2023-02-27T14:58:23.040Z,6.07
2023-02-27T15:00:55.489Z,8.50
2023-02-27T15:03:26.334Z,6.57
2023-02-27T15:05:53.857Z,4.85
2023-02-27T15:08:28.048Z,7.45
2023-02-27T15:10:55.724Z,5.88
2023-02-27T15:13:24.898Z,3.85
2023-02-27T15:15:53.633Z,3.92
2023-02-27T15:18:22.747Z,6.45
2023-02-27T15:20:56.259Z,5.30
2023-02-27T15:25:49.134Z,9.10
2023-02-27T15:28:30.778Z,7.43
2023-02-27T15:30:57.536Z,13.70
2023-02-27T15:33:26.914Z,17.60
2023-02-27T15:35:53.388Z,4.75
2023-02-27T15:38:24.054Z,6.95
2023-02-27T15:40:50.661Z,5.32
2023-02-27T15:43:17.315Z,6.70
2023-02-27T15:45:43.977Z,7.55
2023-02-27T15:48:14.824Z,6.55
2023-02-27T15:50:42.610Z,6.25
2023-02-27T15:53:26.070Z,6.65
2023-02-27T15:55:53.911Z,31.02
2023-02-27T15:58:29.003Z,8.13
2023-02-27T16:01:00.719Z,17.65
2023-02-27T16:03:30.957Z,22.13
2023-02-27T16:05:57.800Z,13.20
2023-02-27T16:08:24.499Z,11.80
2023-02-27T16:10:51.653Z,12.02
2023-02-27T16:13:33.454Z,10.48
2023-02-27T16:16:01.225Z,10.60
2023-02-27T16:18:32.212Z,8.85
2023-02-27T16:21:08.714Z,12.10
2023-02-27T16:23:35.268Z,9.52
2023-02-27T16:26:23.016Z,9.75
2023-02-27T16:29:04.628Z,11.57
2023-02-27T16:31:35.945Z,9.23
2023-02-27T16:34:13.229Z,11.90
2023-02-27T16:36:50.940Z,10.50
2023-02-27T16:39:17.353Z,17.77
2023-02-27T16:41:43.754Z,15.13
2023-02-27T16:44:10.153Z,11.45
2023-02-27T16:46:36.552Z,11.05
2023-02-27T16:49:17.912Z,11.57
2023-02-27T16:51:46.495Z,13.85
2023-02-27T16:54:13.800Z,12.82
2023-02-27T16:56:40.661Z,24.77
2023-02-27T16:59:07.457Z,30.30
2023-02-27T17:01:34.448Z,30.50
2023-02-27T17:04:01.139Z,14.30
2023-02-27T17:06:28.021Z,13.60
2023-02-27T17:08:56.041Z,14.45
2023-02-27T17:11:22.545Z,18.20
2023-02-27T17:13:49.085Z,15.05
2023-02-27T17:16:15.804Z,18.90
2023-02-27T17:18:42.281Z,17.45
2023-02-27T17:21:08.700Z,15.07
2023-02-27T17:23:35.362Z,18.23
2023-02-27T17:26:01.798Z,14.77
2023-02-27T17:28:28.372Z,16.50
2023-02-27T17:30:54.865Z,13.18
2023-02-27T17:33:21.412Z,12.20
2023-02-27T17:35:47.884Z,6.63
2023-02-27T17:38:14.599Z,20.98
2023-02-27T17:40:41.024Z,16.50
2023-02-27T17:43:07.498Z,11.65
2023-02-27T17:45:33.951Z,14.20
2023-02-27T17:48:00.423Z,14.60
2023-02-27T17:50:26.834Z,12.85
2023-02-27T17:52:53.308Z,15.57
2023-02-27T17:55:19.800Z,18.45
2023-02-27T17:57:46.270Z,24.73
2023-02-27T18:00:17.700Z,22.65
2023-02-27T18:02:45.018Z,17.05
2023-02-27T18:05:11.753Z,17.23
2023-02-27T18:07:38.269Z,17.25
2023-02-27T18:10:05.801Z,17.02
2023-02-27T18:12:32.443Z,18.33
2023-02-27T18:14:58.969Z,16.38
2023-02-27T18:17:25.452Z,15.13
2023-02-27T18:19:51.856Z,13.07
2023-02-27T18:22:18.809Z,12.90
2023-02-27T18:24:45.295Z,12.45
2023-02-27T18:27:11.903Z,13.75
2023-02-27T18:29:38.585Z,14.95
2023-02-27T18:32:07.325Z,11.52
2023-02-27T18:34:33.849Z,15.93
2023-02-27T18:37:00.332Z,23.08
2023-02-27T18:39:26.811Z,18.80
2023-02-27T18:41:53.356Z,20.90
2023-02-27T18:44:19.775Z,21.23
2023-02-27T18:46:46.270Z,20.50
2023-02-27T18:49:12.765Z,18.90
2023-02-27T18:51:39.294Z,18.42
2023-02-27T18:54:06.939Z,20.00
2023-02-27T18:56:33.439Z,21.33
2023-02-27T18:59:04.975Z,20.63
2023-02-27T19:01:32.891Z,22.13
2023-02-27T19:04:03.549Z,23.38
2023-02-27T19:06:34.447Z,24.25
2023-02-27T19:09:00.921Z,23.13
2023-02-27T19:11:29.595Z,21.50
2023-02-27T19:13:56.867Z,23.10
2023-02-27T19:16:23.425Z,15.75
2023-02-27T19:18:49.852Z,17.17
2023-02-27T19:21:16.314Z,21.88
2023-02-27T19:23:43.341Z,21.38
2023-02-27T19:26:09.805Z,25.30
2023-02-27T19:28:36.461Z,21.67
2023-02-27T19:31:06.967Z,19.38
2023-02-27T19:33:33.515Z,20.52
2023-02-27T19:36:00.937Z,21.63
2023-02-27T19:38:27.393Z,17.60
2023-02-27T19:40:53.945Z,18.38
2023-02-27T19:43:20.419Z,20.27
2023-02-27T19:45:46.850Z,20.85
2023-02-27T19:48:15.292Z,83.65
2023-02-27T19:50:41.697Z,31.88
2023-02-27T19:53:08.235Z,42.92
2023-02-27T19:55:34.645Z,28.20
2023-02-27T19:58:01.511Z,30.63
2023-02-27T20:00:28.072Z,34.65
2023-02-27T20:02:54.501Z,37.10
2023-02-27T20:05:21.116Z,42.72
2023-02-27T20:07:48.388Z,31.98
2023-02-27T20:10:15.693Z,28.63
2023-02-27T20:12:42.447Z,24.88
2023-02-27T20:15:11.566Z,38.53
2023-02-27T20:17:38.940Z,34.53
2023-02-27T20:20:05.726Z,36.45
2023-02-27T20:22:33.504Z,35.22
2023-02-27T20:25:00.107Z,33.72
2023-02-27T20:27:26.924Z,32.35
2023-02-27T20:29:56.235Z,35.58
2023-02-27T20:32:24.144Z,40.63
2023-02-27T20:34:50.902Z,42.03
2023-02-27T20:37:17.396Z,45.45
2023-02-27T20:39:45.159Z,47.45
2023-02-27T20:42:12.128Z,48.35
2023-02-27T20:44:38.619Z,52.13
2023-02-27T20:47:05.026Z,48.63
2023-02-27T20:49:31.427Z,49.75
2023-02-27T20:51:58.649Z,44.20
2023-02-27T20:54:25.234Z,41.03
2023-02-27T20:56:52.311Z,45.70
2023-02-27T20:59:20.676Z,39.47
2023-02-27T21:01:51.395Z,45.50
2023-02-27T21:04:22.303Z,55.45
2023-02-27T21:06:49.180Z,48.15
2023-02-27T21:09:15.637Z,41.08
2023-02-27T21:11:42.128Z,44.45
2023-02-27T21:14:09.515Z,43.78
2023-02-27T21:16:36.898Z,42.38
2023-02-27T21:19:03.815Z,55.67
2023-02-27T21:21:32.008Z,53.33
2023-02-27T21:23:59.193Z,54.45
2023-02-27T21:26:35.107Z,52.15
2023-02-27T21:29:06.884Z,51.70
2023-02-27T21:31:34.153Z,53.17
2023-02-27T21:34:01.569Z,58.60
2023-02-27T21:36:29.309Z,60.63
2023-02-27T21:38:56.794Z,39.28
2023-02-27T21:41:23.324Z,50.22
2023-02-27T21:43:49.787Z,45.58
2023-02-27T21:46:16.306Z,40.22
2023-02-27T21:48:43.669Z,47.28
2023-02-27T21:51:10.292Z,36.63
2023-02-27T21:53:36.999Z,34.83
2023-02-27T21:56:08.170Z,30.40
2023-02-27T21:58:34.655Z,24.50
2023-02-27T22:01:01.268Z,18.98
2023-02-27T22:03:34.899Z,22.98
2023-02-27T22:06:02.050Z,24.83
2023-02-27T22:08:28.736Z,29.77
2023-02-27T22:10:56.102Z,26.95
2023-02-27T22:13:22.519Z,29.88
2023-02-27T22:15:49.112Z,34.17
2023-02-27T22:18:15.649Z,29.10
2023-02-27T22:20:42.329Z,47.25
2023-02-27T22:23:08.833Z,36.10
2023-02-27T22:25:35.963Z,25.52
2023-02-27T22:28:03.580Z,31.48
2023-02-27T22:30:30.365Z,30.15
2023-02-27T22:32:56.771Z,28.80
2023-02-27T22:35:23.466Z,27.08
2023-02-27T22:37:50.049Z,27.60
2023-02-27T22:40:17.939Z,25.48
2023-02-27T22:42:45.111Z,20.73
2023-02-27T22:45:11.815Z,22.23
2023-02-27T22:47:38.242Z,38.13
2023-02-27T22:50:04.872Z,34.22
2023-02-27T22:52:31.397Z,42.70
2023-02-27T22:54:57.791Z,39.95
2023-02-27T22:57:24.264Z,38.33
2023-02-27T22:59:50.765Z,41.25
2023-02-27T23:02:17.358Z,42.63
2023-02-27T23:04:43.923Z,42.97
2023-02-27T23:07:10.423Z,41.60
2023-02-27T23:09:36.847Z,40.53
2023-02-27T23:12:04.443Z,42.13
2023-02-27T23:14:31.046Z,43.67
2023-02-27T23:16:57.451Z,42.83
2023-02-27T23:19:24.009Z,40.17
2023-02-27T23:21:50.512Z,45.05
2023-02-27T23:24:17.880Z,45.45
2023-02-27T23:26:45.397Z,42.13
2023-02-27T23:29:12.258Z,44.63
2023-02-27T23:31:39.077Z,44.00
2023-02-27T23:34:06.217Z,42.65
2023-02-27T23:36:33.741Z,42.83
2023-02-27T23:39:00.190Z,43.42
2023-02-27T23:41:27.772Z,43.00
2023-02-27T23:44:13.262Z,44.25
2023-02-27T23:46:40.601Z,41.15
2023-02-27T23:49:07.042Z,45.92
2023-02-27T23:51:33.924Z,42.92
2023-02-27T23:54:00.489Z,42.40
2023-02-27T23:56:28.512Z,43.60
2023-02-27T23:58:56.512Z,44.88
